Time,TemperatureF,DewpointF,PressureIn,WindDirection,WindDirectionDegrees,WindSpeedMPH,WindSpeedGustMPH,Humidity,HourlyPrecipIn,Conditions,Clouds,dailyrainin,SoftwareType,DateUTC
2013-06-18 00:03:00,67.9,64.2,29.84,SW,234,2.0,6.0,88,0.00,,---,0.00,VWS V14.00,2013-06-18 05:03:00,
2013-06-18 00:08:00,67.6,64.2,29.84,SW,234,5.0,7.0,89,0.00,,---,0.00,VWS V14.00,2013-06-18 05:08:00,
2013-06-18 00:13:00,67.4,64.1,29.84,SW,234,6.0,6.0,89,0.00,,---,0.00,VWS V14.00,2013-06-18 05:13:00,
2013-06-18 00:18:00,67.3,64.0,29.84,SW,234,4.0,6.0,89,0.00,,---,0.00,VWS V14.00,2013-06-18 05:18:00,
2013-06-18 00:23:00,67.1,64.1,29.84,SW,234,7.0,7.0,90,0.00,,---,0.00,VWS V14.00,2013-06-18 05:23:00,
2013-06-18 00:28:00,67.1,64.1,29.84,SW,234,5.0,6.0,90,0.00,,---,0.00,VWS V14.00,2013-06-18 05:28:00,
2013-06-18 00:33:00,67.1,64.1,29.84,SW,234,5.0,6.0,90,0.00,,---,0.00,VWS V14.00,2013-06-18 05:33:00,
2013-06-18 00:39:00,67.1,64.1,29.84,SW,234,4.0,6.0,90,0.00,,---,0.00,VWS V14.00,2013-06-18 05:39:00,
2013-06-18 00:44:00,66.9,63.9,29.84,SW,234,5.0,5.0,90,0.00,,---,0.00,VWS V14.00,2013-06-18 05:44:00,
2013-06-18 00:49:00,66.8,63.8,29.83,SW,234,1.0,2.0,90,0.00,,---,0.00,VWS V14.00,2013-06-18 05:49:00,
2013-06-18 00:54:00,66.6,63.6,29.83,SW,234,0.0,2.0,90,0.00,,---,0.00,VWS V14.00,2013-06-18 05:54:00,
2013-06-18 00:59:00,66.4,63.7,29.83,SW,234,3.0,4.0,91,0.00,,---,0.00,VWS V14.00,2013-06-18 05:59:00,
2013-06-18 01:04:00,66.4,63.7,29.84,SW,234,0.0,4.0,91,0.00,,---,0.00,VWS V14.00,2013-06-18 06:04:00,
2013-06-18 01:09:00,66.4,63.7,29.84,SW,234,2.0,7.0,91,0.00,,---,0.00,VWS V14.00,2013-06-18 06:09:00,
2013-06-18 01:14:00,66.4,63.4,29.84,SW,234,2.0,4.0,90,0.00,,---,0.00,VWS V14.00,2013-06-18 06:14:00,
2013-06-18 01:19:00,66.4,63.4,29.84,SW,234,1.0,5.0,90,0.00,,---,0.00,VWS V14.00,2013-06-18 06:19:00,
2013-06-18 01:25:00,66.4,63.4,29.84,SW,234,1.0,1.0,90,0.00,,---,0.00,VWS V14.00,2013-06-18 06:25:00,
2013-06-18 01:30:00,66.4,63.4,29.84,SW,234,0.0,0.0,90,0.00,,---,0.00,VWS V14.00,2013-06-18 06:30:00,
2013-06-18 01:35:00,66.3,63.3,29.84,SW,234,0.0,0.0,90,0.00,,---,0.00,VWS V14.00,2013-06-18 06:35:00,
2013-06-18 01:40:00,66.1,63.1,29.84,SW,234,0.0,2.0,90,0.00,,---,0.00,VWS V14.00,2013-06-18 06:40:00,
2013-06-18 01:45:00,66.0,63.0,29.84,SW,234,0.0,1.0,90,0.00,,---,0.00,VWS V14.00,2013-06-18 06:45:00,
2013-06-18 01:50:00,65.8,62.8,29.84,SW,234,0.0,0.0,90,0.00,,---,0.00,VWS V14.00,2013-06-18 06:50:00,
2013-06-18 01:55:00,65.6,62.9,29.84,SW,234,0.0,0.0,91,0.00,,---,0.00,VWS V14.00,2013-06-18 06:55:00,
2013-06-18 02:00:00,65.6,62.9,29.84,SW,234,0.0,1.0,91,0.00,,---,0.00,VWS V14.00,2013-06-18 07:00:00,
2013-06-18 02:05:00,65.3,62.6,29.84,SW,234,0.0,0.0,91,0.00,,---,0.00,VWS V14.00,2013-06-18 07:05:00,
2013-06-18 02:11:00,65.2,62.8,29.84,SW,234,0.0,0.0,92,0.00,,---,0.00,VWS V14.00,2013-06-18 07:11:00,
2013-06-18 02:16:00,65.0,62.6,29.84,SW,234,0.0,0.0,92,0.00,,---,0.00,VWS V14.00,2013-06-18 07:16:00,
2013-06-18 02:21:00,64.8,62.4,29.84,SW,234,0.0,0.0,92,0.00,,---,0.00,VWS V14.00,2013-06-18 07:21:00,
2013-06-18 02:26:00,64.8,62.7,29.84,SW,234,0.0,0.0,93,0.00,,---,0.00,VWS V14.00,2013-06-18 07:26:00,
2013-06-18 02:31:00,64.7,62.6,29.84,SW,234,0.0,0.0,93,0.00,,---,0.00,VWS V14.00,2013-06-18 07:31:00,
2013-06-18 02:36:00,64.5,62.4,29.83,SW,234,0.0,0.0,93,0.00,,---,0.00,VWS V14.00,2013-06-18 07:36:00,
2013-06-18 02:41:00,64.3,62.2,29.83,SW,234,0.0,0.0,93,0.00,,---,0.00,VWS V14.00,2013-06-18 07:41:00,
2013-06-18 02:46:00,64.2,62.1,29.83,SW,234,0.0,0.0,93,0.00,,---,0.00,VWS V14.00,2013-06-18 07:46:00,
2013-06-18 02:51:00,64.0,62.2,29.83,SW,234,0.0,0.0,94,0.00,,---,0.00,VWS V14.00,2013-06-18 07:51:00,
2013-06-18 02:56:00,64.0,62.2,29.83,SW,234,0.0,0.0,94,0.00,,---,0.00,VWS V14.00,2013-06-18 07:56:00,
2013-06-18 03:01:00,64.0,62.2,29.83,SW,234,0.0,0.0,94,0.00,,---,0.00,VWS V14.00,2013-06-18 08:01:00,
2013-06-18 03:07:00,64.0,62.2,29.84,SW,234,0.0,0.0,94,0.00,,---,0.00,VWS V14.00,2013-06-18 08:07:00,
2013-06-18 03:12:00,64.0,62.2,29.84,SW,234,0.0,0.0,94,0.00,,---,0.00,VWS V14.00,2013-06-18 08:12:00,
2013-06-18 03:17:00,64.2,62.7,29.84,SW,234,0.0,0.0,95,0.00,,---,0.00,VWS V14.00,2013-06-18 08:17:00,
2013-06-18 03:22:00,64.2,62.7,29.84,SW,234,0.0,1.0,95,0.00,,---,0.00,VWS V14.00,2013-06-18 08:22:00,
2013-06-18 03:27:00,64.3,62.8,29.84,SW,234,0.0,1.0,95,0.00,,---,0.00,VWS V14.00,2013-06-18 08:27:00,
2013-06-18 03:32:00,64.3,62.5,29.84,SW,234,0.0,0.0,94,0.00,,---,0.00,VWS V14.00,2013-06-18 08:32:00,
2013-06-18 03:37:00,64.2,62.4,29.84,SW,234,0.0,0.0,94,0.00,,---,0.00,VWS V14.00,2013-06-18 08:37:00,
2013-06-18 03:42:00,63.9,62.1,29.84,SW,234,0.0,0.0,94,0.00,,---,0.00,VWS V14.00,2013-06-18 08:42:00,
2013-06-18 03:47:00,63.5,61.8,29.84,SW,234,1.0,1.0,94,0.00,,---,0.00,VWS V14.00,2013-06-18 08:47:00,
2013-06-18 03:52:00,63.4,62.0,29.84,SW,234,0.0,0.0,95,0.00,,---,0.00,VWS V14.00,2013-06-18 08:52:00,
2013-06-18 03:57:00,63.4,62.0,29.84,SW,234,3.0,4.0,95,0.00,,---,0.00,VWS V14.00,2013-06-18 08:57:00,
2013-06-18 04:03:00,62.9,61.5,29.84,SW,229,1.0,3.0,95,0.00,,---,0.00,VWS V14.00,2013-06-18 09:03:00,
2013-06-18 04:08:00,62.7,61.2,29.85,SW,229,0.0,0.0,95,0.00,,---,0.00,VWS V14.00,2013-06-18 09:08:00,
2013-06-18 04:13:00,62.7,61.5,29.85,SW,229,0.0,0.0,96,0.00,,---,0.00,VWS V14.00,2013-06-18 09:13:00,
2013-06-18 04:18:00,62.7,61.5,29.85,SW,229,0.0,2.0,96,0.00,,---,0.00,VWS V14.00,2013-06-18 09:18:00,
2013-06-18 04:23:00,62.7,61.5,29.84,SW,229,2.0,3.0,96,0.00,,---,0.00,VWS V14.00,2013-06-18 09:23:00,
2013-06-18 04:28:00,62.6,61.5,29.84,SW,229,1.0,2.0,96,0.00,,---,0.00,VWS V14.00,2013-06-18 09:28:00,
2013-06-18 04:33:00,62.6,61.5,29.84,SW,229,0.0,1.0,96,0.00,,---,0.00,VWS V14.00,2013-06-18 09:33:00,
2013-06-18 04:38:00,62.6,61.7,29.84,SW,229,2.0,2.0,97,0.00,,---,0.00,VWS V14.00,2013-06-18 09:38:00,
2013-06-18 04:43:00,62.7,61.8,29.84,SW,229,0.0,1.0,97,0.00,,---,0.00,VWS V14.00,2013-06-18 09:43:00,
2013-06-18 04:48:00,62.6,61.7,29.84,SW,229,0.0,0.0,97,0.00,,---,0.00,VWS V14.00,2013-06-18 09:48:00,
2013-06-18 04:54:00,62.6,61.7,29.85,SW,229,0.0,0.0,97,0.00,,---,0.00,VWS V14.00,2013-06-18 09:54:00,
2013-06-18 04:59:00,62.4,61.5,29.85,SW,229,0.0,0.0,97,0.00,,---,0.00,VWS V14.00,2013-06-18 09:59:00,
2013-06-18 05:04:00,62.4,61.5,29.86,SW,229,0.0,0.0,97,0.00,,---,0.00,VWS V14.00,2013-06-18 10:04:00,
2013-06-18 05:09:00,62.4,61.5,29.86,SW,229,0.0,0.0,97,0.00,,---,0.00,VWS V14.00,2013-06-18 10:09:00,
2013-06-18 05:14:00,62.3,61.4,29.86,SW,229,0.0,0.0,97,0.00,,---,0.00,VWS V14.00,2013-06-18 10:14:00,
2013-06-18 05:19:00,62.3,61.4,29.86,SW,229,0.0,0.0,97,0.00,,---,0.00,VWS V14.00,2013-06-18 10:19:00,
2013-06-18 05:24:00,62.3,61.4,29.86,SW,229,0.0,0.0,97,0.00,,---,0.00,VWS V14.00,2013-06-18 10:24:00,
2013-06-18 05:29:00,62.1,61.2,29.86,SW,229,0.0,0.0,97,0.00,,---,0.00,VWS V14.00,2013-06-18 10:29:00,
2013-06-18 05:34:00,62.0,61.1,29.86,SW,229,0.0,0.0,97,0.00,,---,0.00,VWS V14.00,2013-06-18 10:34:00,
2013-06-18 05:40:00,62.0,61.4,29.86,SW,229,0.0,0.0,98,0.00,,---,0.00,VWS V14.00,2013-06-18 10:40:00,
2013-06-18 05:45:00,62.1,61.5,29.86,SW,229,0.0,0.0,98,0.00,,---,0.00,VWS V14.00,2013-06-18 10:45:00,
2013-06-18 05:50:00,62.1,61.5,29.88,SW,229,0.0,0.0,98,0.00,,---,0.00,VWS V14.00,2013-06-18 10:50:00,
2013-06-18 05:55:00,62.3,61.7,29.88,SW,229,3.0,4.0,98,0.00,,---,0.00,VWS V14.00,2013-06-18 10:55:00,
2013-06-18 06:00:00,62.6,62.0,29.88,SW,229,0.0,1.0,98,0.00,,---,0.00,VWS V14.00,2013-06-18 11:00:00,
2013-06-18 06:05:00,62.6,62.0,29.88,SW,229,0.0,0.0,98,0.00,,---,0.00,VWS V14.00,2013-06-18 11:05:00,
2013-06-18 06:10:00,62.6,62.0,29.88,SW,229,0.0,0.0,98,0.00,,---,0.00,VWS V14.00,2013-06-18 11:10:00,
2013-06-18 06:15:00,62.7,62.1,29.88,SW,229,0.0,0.0,98,0.00,,---,0.00,VWS V14.00,2013-06-18 11:15:00,
2013-06-18 06:20:00,63.1,62.5,29.88,SW,229,0.0,0.0,98,0.00,,---,0.00,VWS V14.00,2013-06-18 11:20:00,
2013-06-18 06:25:00,63.2,62.6,29.88,SW,229,0.0,0.0,98,0.00,,---,0.00,VWS V14.00,2013-06-18 11:25:00,
2013-06-18 06:31:00,63.4,63.1,29.88,SW,229,0.0,0.0,99,0.00,,---,0.00,VWS V14.00,2013-06-18 11:31:00,
2013-06-18 06:36:00,63.7,63.4,29.88,SW,229,0.0,0.0,99,0.00,,---,0.00,VWS V14.00,2013-06-18 11:36:00,
2013-06-18 06:41:00,63.9,63.6,29.88,SW,229,0.0,0.0,99,0.00,,---,0.00,VWS V14.00,2013-06-18 11:41:00,
2013-06-18 06:46:00,64.2,63.9,29.88,SW,229,0.0,2.0,99,0.00,,---,0.00,VWS V14.00,2013-06-18 11:46:00,
2013-06-18 06:51:00,64.5,64.2,29.89,SW,229,0.0,0.0,99,0.00,,---,0.00,VWS V14.00,2013-06-18 11:51:00,
2013-06-18 06:56:00,65.0,64.4,29.89,SW,229,3.0,4.0,98,0.00,,---,0.00,VWS V14.00,2013-06-18 11:56:00,
2013-06-18 07:01:00,65.2,64.6,29.89,SW,229,0.0,0.0,98,0.00,,---,0.00,VWS V14.00,2013-06-18 12:01:00,
2013-06-18 07:06:00,65.3,64.7,29.89,SW,229,0.0,0.0,98,0.00,,---,0.00,VWS V14.00,2013-06-18 12:06:00,
2013-06-18 07:11:00,65.6,65.0,29.89,SW,229,0.0,0.0,98,0.00,,---,0.00,VWS V14.00,2013-06-18 12:11:00,
2013-06-18 07:17:00,65.8,64.9,29.89,SW,229,0.0,0.0,97,0.00,,---,0.00,VWS V14.00,2013-06-18 12:17:00,
2013-06-18 07:22:00,66.0,65.1,29.89,SW,229,0.0,3.0,97,0.00,,---,0.00,VWS V14.00,2013-06-18 12:22:00,
2013-06-18 07:27:00,66.1,65.2,29.89,SW,229,0.0,0.0,97,0.00,,---,0.00,VWS V14.00,2013-06-18 12:27:00,
2013-06-18 07:32:00,66.6,65.7,29.89,SW,229,0.0,0.0,97,0.00,,---,0.00,VWS V14.00,2013-06-18 12:32:00,
2013-06-18 07:37:00,66.9,66.0,29.89,SW,229,0.0,0.0,97,0.00,,---,0.00,VWS V14.00,2013-06-18 12:37:00,
2013-06-18 07:42:00,67.1,66.2,29.89,SW,229,0.0,0.0,97,0.00,,---,0.00,VWS V14.00,2013-06-18 12:42:00,
2013-06-18 07:47:00,67.3,66.1,29.89,SW,229,0.0,0.0,96,0.00,,---,0.00,VWS V14.00,2013-06-18 12:47:00,
2013-06-18 07:52:00,67.4,66.2,29.88,SW,229,0.0,0.0,96,0.00,,---,0.00,VWS V14.00,2013-06-18 12:52:00,
2013-06-18 07:57:00,67.8,66.6,29.88,SW,229,0.0,0.0,96,0.00,,---,0.00,VWS V14.00,2013-06-18 12:57:00,
2013-06-18 08:02:00,67.9,66.7,29.88,SW,229,0.0,0.0,96,0.00,,---,0.00,VWS V14.00,2013-06-18 13:02:00,
2013-06-18 08:08:00,68.1,66.9,29.88,SW,229,0.0,1.0,96,0.00,,---,0.00,VWS V14.00,2013-06-18 13:08:00,
2013-06-18 08:13:00,67.9,66.4,29.88,SW,229,2.0,2.0,95,0.00,,---,0.00,VWS V14.00,2013-06-18 13:13:00,
2013-06-18 08:18:00,67.8,66.3,29.88,SW,229,0.0,3.0,95,0.00,,---,0.00,VWS V14.00,2013-06-18 13:18:00,
2013-06-18 08:23:00,67.9,66.4,29.88,SW,229,0.0,1.0,95,0.00,,---,0.00,VWS V14.00,2013-06-18 13:23:00,
2013-06-18 08:28:00,68.3,66.8,29.88,SW,229,0.0,0.0,95,0.00,,---,0.00,VWS V14.00,2013-06-18 13:28:00,
2013-06-18 08:33:00,68.6,67.1,29.88,SW,229,0.0,3.0,95,0.00,,---,0.00,VWS V14.00,2013-06-18 13:33:00,
2013-06-18 08:38:00,68.9,67.1,29.88,SW,229,0.0,3.0,94,0.00,,---,0.00,VWS V14.00,2013-06-18 13:38:00,
2013-06-18 08:43:00,69.1,67.0,29.88,SW,229,1.0,4.0,93,0.00,,---,0.00,VWS V14.00,2013-06-18 13:43:00,
2013-06-18 08:48:00,69.3,66.9,29.88,SW,229,3.0,3.0,92,0.00,,---,0.00,VWS V14.00,2013-06-18 13:48:00,
2013-06-18 08:54:00,69.6,66.2,29.88,SW,229,2.0,3.0,89,0.00,,---,0.00,VWS V14.00,2013-06-18 13:54:00,
2013-06-18 08:59:00,70.1,65.4,29.88,SW,229,0.0,3.0,85,0.00,,---,0.00,VWS V14.00,2013-06-18 13:59:00,
2013-06-18 09:04:00,70.8,64.7,29.88,SW,229,1.0,2.0,81,0.00,,---,0.00,VWS V14.00,2013-06-18 14:04:00,
2013-06-18 09:09:00,71.6,65.5,29.88,SW,229,0.0,0.0,81,0.00,,---,0.00,VWS V14.00,2013-06-18 14:09:00,
2013-06-18 09:14:00,72.8,65.9,29.88,SW,229,0.0,0.0,79,0.00,,---,0.00,VWS V14.00,2013-06-18 14:14:00,
2013-06-18 09:19:00,73.5,65.1,29.88,SW,229,3.0,3.0,75,0.00,,---,0.00,VWS V14.00,2013-06-18 14:19:00,
2013-06-18 09:24:00,74.0,64.4,29.88,SW,229,0.0,0.0,72,0.00,,---,0.00,VWS V14.00,2013-06-18 14:24:00,
2013-06-18 09:29:00,74.2,63.0,29.88,SW,229,1.0,3.0,68,0.00,,---,0.00,VWS V14.00,2013-06-18 14:29:00,
2013-06-18 09:35:00,74.6,63.3,29.88,SW,229,4.0,5.0,68,0.00,,---,0.00,VWS V14.00,2013-06-18 14:35:00,
2013-06-18 09:40:00,75.1,64.7,29.88,SW,229,0.0,1.0,70,0.00,,---,0.00,VWS V14.00,2013-06-18 14:40:00,
2013-06-18 09:45:00,75.8,64.5,29.88,SW,229,1.0,1.0,68,0.00,,---,0.00,VWS V14.00,2013-06-18 14:45:00,
2013-06-18 09:50:00,76.3,63.7,29.87,SW,229,2.0,4.0,65,0.00,,---,0.00,VWS V14.00,2013-06-18 14:50:00,
2013-06-18 09:55:00,76.8,64.2,29.87,SW,229,0.0,1.0,65,0.00,,---,0.00,VWS V14.00,2013-06-18 14:55:00,
2013-06-18 10:00:00,77.4,64.3,29.87,SW,229,3.0,5.0,64,0.00,,---,0.00,VWS V14.00,2013-06-18 15:00:00,
2013-06-18 10:05:00,77.6,64.5,29.87,SW,229,2.0,4.0,64,0.00,,---,0.00,VWS V14.00,2013-06-18 15:05:00,
2013-06-18 10:10:00,77.6,64.0,29.87,SW,229,0.0,1.0,63,0.00,,---,0.00,VWS V14.00,2013-06-18 15:10:00,
2013-06-18 10:15:00,77.9,63.4,29.87,SW,229,2.0,3.0,61,0.00,,---,0.00,VWS V14.00,2013-06-18 15:15:00,
2013-06-18 10:20:00,78.5,64.0,29.87,SW,229,0.0,1.0,61,0.00,,---,0.00,VWS V14.00,2013-06-18 15:20:00,
2013-06-18 10:25:00,78.6,63.6,29.87,SW,229,0.0,4.0,60,0.00,,---,0.00,VWS V14.00,2013-06-18 15:25:00,
2013-06-18 10:30:00,78.8,63.3,29.87,SW,229,0.0,4.0,59,0.00,,---,0.00,VWS V14.00,2013-06-18 15:30:00,
2013-06-18 10:35:00,79.0,63.9,29.87,SW,229,1.0,1.0,60,0.00,,---,0.00,VWS V14.00,2013-06-18 15:35:00,
2013-06-18 10:40:00,79.2,63.7,29.87,SW,229,0.0,0.0,59,0.00,,---,0.00,VWS V14.00,2013-06-18 15:40:00,
2013-06-18 10:46:00,79.6,63.5,29.87,SW,229,2.0,5.0,58,0.00,,---,0.00,VWS V14.00,2013-06-18 15:46:00,
2013-06-18 10:51:00,79.8,63.7,29.88,SW,229,0.0,1.0,58,0.00,,---,0.00,VWS V14.00,2013-06-18 15:51:00,
2013-06-18 10:56:00,79.9,64.3,29.88,SW,229,0.0,1.0,59,0.00,,---,0.00,VWS V14.00,2013-06-18 15:56:00,
2013-06-18 11:01:00,80.5,64.9,29.88,SW,229,1.0,2.0,59,0.00,,---,0.00,VWS V14.00,2013-06-18 16:01:00,
2013-06-18 11:06:00,80.7,63.0,29.88,SW,229,1.0,2.0,55,0.00,,---,0.00,VWS V14.00,2013-06-18 16:06:00,
2013-06-18 11:11:00,81.1,64.9,29.88,SW,229,0.0,0.0,58,0.00,,---,0.00,VWS V14.00,2013-06-18 16:11:00,
2013-06-18 11:16:00,81.2,63.5,29.88,SW,229,0.0,0.0,55,0.00,,---,0.00,VWS V14.00,2013-06-18 16:16:00,
2013-06-18 11:21:00,81.1,63.4,29.89,SSW,203,0.0,3.0,55,0.00,,---,0.00,VWS V14.00,2013-06-18 16:21:00,
2013-06-18 11:26:00,81.2,62.5,29.89,SSW,203,0.0,2.0,53,0.00,,---,0.00,VWS V14.00,2013-06-18 16:26:00,
2013-06-18 11:31:00,81.4,63.7,29.89,SSW,203,1.0,3.0,55,0.00,,---,0.00,VWS V14.00,2013-06-18 16:31:00,
2013-06-18 11:37:00,81.6,64.4,29.89,SSW,203,0.0,0.0,56,0.00,,---,0.00,VWS V14.00,2013-06-18 16:37:00,
2013-06-18 11:42:00,81.4,63.7,29.89,SSW,203,0.0,0.0,55,0.00,,---,0.00,VWS V14.00,2013-06-18 16:42:00,
2013-06-18 11:47:00,81.6,61.2,29.89,SSW,203,1.0,1.0,50,0.00,,---,0.00,VWS V14.00,2013-06-18 16:47:00,
2013-06-18 11:52:00,81.8,63.0,29.89,SSW,203,1.0,2.0,53,0.00,,---,0.00,VWS V14.00,2013-06-18 16:52:00,
2013-06-18 11:57:00,82.2,64.4,29.89,SSW,203,3.0,3.0,55,0.00,,---,0.00,VWS V14.00,2013-06-18 16:57:00,
2013-06-18 12:02:00,82.4,63.6,29.89,SSW,203,0.0,2.0,53,0.00,,---,0.00,VWS V14.00,2013-06-18 17:02:00,
2013-06-18 12:07:00,82.6,63.8,29.88,SSW,203,0.0,0.0,53,0.00,,---,0.00,VWS V14.00,2013-06-18 17:07:00,
2013-06-18 12:12:00,82.6,63.8,29.88,SSW,203,0.0,3.0,53,0.00,,---,0.00,VWS V14.00,2013-06-18 17:12:00,
2013-06-18 12:17:00,82.6,63.2,29.88,SSW,203,0.0,1.0,52,0.00,,---,0.00,VWS V14.00,2013-06-18 17:17:00,
2013-06-18 12:22:00,82.8,64.5,29.89,SSW,203,0.0,1.0,54,0.00,,---,0.00,VWS V14.00,2013-06-18 17:22:00,
2013-06-18 12:27:00,83.0,64.1,29.89,SSW,203,2.0,3.0,53,0.00,,---,0.00,VWS V14.00,2013-06-18 17:27:00,
2013-06-18 12:33:00,82.8,62.3,29.89,SSW,194,2.0,4.0,50,0.00,,---,0.00,VWS V14.00,2013-06-18 17:33:00,
2013-06-18 12:38:00,82.6,63.2,29.89,SSW,194,1.0,3.0,52,0.00,,---,0.00,VWS V14.00,2013-06-18 17:38:00,
2013-06-18 12:43:00,83.0,65.2,29.89,SSW,194,4.0,4.0,55,0.00,,---,0.00,VWS V14.00,2013-06-18 17:43:00,
2013-06-18 12:48:00,83.0,63.0,29.89,SSW,194,1.0,4.0,51,0.00,,---,0.00,VWS V14.00,2013-06-18 17:48:00,
2013-06-18 12:53:00,83.0,63.6,29.89,SSW,194,0.0,0.0,52,0.00,,---,0.00,VWS V14.00,2013-06-18 17:53:00,
2013-06-18 12:58:00,83.2,64.3,29.89,SSW,194,0.0,4.0,53,0.00,,---,0.00,VWS V14.00,2013-06-18 17:58:00,
2013-06-18 13:03:00,83.4,64.5,29.89,SSW,194,0.0,0.0,53,0.00,,---,0.00,VWS V14.00,2013-06-18 18:03:00,
2013-06-18 13:08:00,83.4,62.8,29.89,SSW,194,3.0,3.0,50,0.00,,---,0.00,VWS V14.00,2013-06-18 18:08:00,
2013-06-18 13:13:00,84.0,63.9,29.89,SSW,194,0.0,3.0,51,0.00,,---,0.00,VWS V14.00,2013-06-18 18:13:00,
2013-06-18 13:18:00,84.1,63.5,29.89,SSW,194,0.0,1.0,50,0.00,,---,0.00,VWS V14.00,2013-06-18 18:18:00,
2013-06-18 13:24:00,84.1,64.0,29.88,SSW,194,1.0,2.0,51,0.00,,---,0.00,VWS V14.00,2013-06-18 18:24:00,
2013-06-18 13:29:00,83.8,60.8,29.88,SSW,194,2.0,4.0,46,0.00,,---,0.00,VWS V14.00,2013-06-18 18:29:00,
2013-06-18 13:34:00,83.4,63.4,29.88,SSW,194,3.0,3.0,51,0.00,,---,0.00,VWS V14.00,2013-06-18 18:34:00,
2013-06-18 13:39:00,82.8,61.7,29.88,SSW,194,3.0,3.0,49,0.00,,---,0.00,VWS V14.00,2013-06-18 18:39:00,
2013-06-18 13:44:00,82.6,63.2,29.88,SSW,194,4.0,4.0,52,0.00,,---,0.00,VWS V14.00,2013-06-18 18:44:00,
2013-06-18 13:49:00,82.4,61.9,29.88,SSW,194,4.0,6.0,50,0.00,,---,0.00,VWS V14.00,2013-06-18 18:49:00,
2013-06-18 13:54:00,82.4,63.0,29.88,SSW,193,2.0,2.0,52,0.00,,---,0.00,VWS V14.00,2013-06-18 18:54:00,
2013-06-18 13:59:00,82.8,63.4,29.88,SSW,193,3.0,3.0,52,0.00,,---,0.00,VWS V14.00,2013-06-18 18:59:00,
2013-06-18 14:04:00,83.0,63.0,29.87,SSW,193,0.0,3.0,51,0.00,,---,0.00,VWS V14.00,2013-06-18 19:04:00,
2013-06-18 14:09:00,83.4,63.4,29.87,SSW,193,3.0,3.0,51,0.00,,---,0.00,VWS V14.00,2013-06-18 19:09:00,
2013-06-18 14:14:00,83.6,61.8,29.87,South,189,0.0,3.0,48,0.00,,---,0.00,VWS V14.00,2013-06-18 19:14:00,
2013-06-18 14:19:00,83.8,63.8,29.87,South,189,0.0,2.0,51,0.00,,---,0.00,VWS V14.00,2013-06-18 19:19:00,
2013-06-18 14:25:00,84.0,61.6,29.87,South,189,0.0,4.0,47,0.00,,---,0.00,VWS V14.00,2013-06-18 19:25:00,
2013-06-18 14:30:00,84.0,62.2,29.87,South,189,0.0,1.0,48,0.00,,---,0.00,VWS V14.00,2013-06-18 19:30:00,
2013-06-18 14:35:00,83.4,60.5,29.87,South,189,3.0,3.0,46,0.00,,---,0.00,VWS V14.00,2013-06-18 19:35:00,
2013-06-18 14:40:00,83.2,62.1,29.87,South,189,1.0,5.0,49,0.00,,---,0.00,VWS V14.00,2013-06-18 19:40:00,
2013-06-18 14:45:00,83.0,61.9,29.87,South,189,1.0,4.0,49,0.00,,---,0.00,VWS V14.00,2013-06-18 19:45:00,
2013-06-18 14:50:00,83.2,62.7,29.87,South,189,0.0,2.0,50,0.00,,---,0.00,VWS V14.00,2013-06-18 19:50:00,
2013-06-18 14:55:00,83.8,63.8,29.87,South,189,0.0,0.0,51,0.00,,---,0.00,VWS V14.00,2013-06-18 19:55:00,
2013-06-18 15:00:00,83.6,61.3,29.87,South,188,1.0,3.0,47,0.00,,---,0.00,VWS V14.00,2013-06-18 20:00:00,
2013-06-18 15:05:00,83.4,62.3,29.87,South,188,3.0,5.0,49,0.00,,---,0.00,VWS V14.00,2013-06-18 20:05:00,
2013-06-18 15:10:00,83.6,62.4,29.87,South,188,1.0,5.0,49,0.00,,---,0.00,VWS V14.00,2013-06-18 20:10:00,
2013-06-18 15:15:00,83.2,60.3,29.87,South,188,2.0,2.0,46,0.00,,---,0.00,VWS V14.00,2013-06-18 20:15:00,
2013-06-18 15:20:00,83.2,61.5,29.86,South,188,0.0,0.0,48,0.00,,---,0.00,VWS V14.00,2013-06-18 20:20:00,
2013-06-18 15:25:00,83.2,62.1,29.86,South,188,2.0,4.0,49,0.00,,---,0.00,VWS V14.00,2013-06-18 20:25:00,
2013-06-18 15:31:00,83.4,60.5,29.86,South,188,4.0,4.0,46,0.00,,---,0.00,VWS V14.00,2013-06-18 20:31:00,
2013-06-18 15:36:00,83.6,60.7,29.87,South,187,4.0,6.0,46,0.00,,---,0.00,VWS V14.00,2013-06-18 20:36:00,
2013-06-18 15:41:00,83.8,60.8,29.87,South,187,3.0,4.0,46,0.00,,---,0.00,VWS V14.00,2013-06-18 20:41:00,
2013-06-18 15:46:00,83.8,62.0,29.87,South,187,0.0,2.0,48,0.00,,---,0.00,VWS V14.00,2013-06-18 20:46:00,
2013-06-18 15:51:00,84.0,61.6,29.87,South,187,2.0,3.0,47,0.00,,---,0.00,VWS V14.00,2013-06-18 20:51:00,
2013-06-18 15:56:00,83.8,60.2,29.87,South,187,0.0,0.0,45,0.00,,---,0.00,VWS V14.00,2013-06-18 20:56:00,
2013-06-18 16:01:00,84.0,60.4,29.87,South,187,3.0,6.0,45,0.00,,---,0.00,VWS V14.00,2013-06-18 21:01:00,
2013-06-18 16:06:00,84.0,60.4,29.86,South,187,0.0,4.0,45,0.00,,---,0.00,VWS V14.00,2013-06-18 21:06:00,
2013-06-18 16:11:00,84.1,60.5,29.86,South,187,5.0,7.0,45,0.00,,---,0.00,VWS V14.00,2013-06-18 21:11:00,
2013-06-18 16:17:00,83.4,59.2,29.86,South,186,0.0,4.0,44,0.00,,---,0.00,VWS V14.00,2013-06-18 21:17:00,
2013-06-18 16:22:00,82.6,60.3,29.87,South,186,1.0,4.0,47,0.00,,---,0.00,VWS V14.00,2013-06-18 21:22:00,
2013-06-18 16:27:00,82.2,59.4,29.87,South,186,4.0,5.0,46,0.00,,---,0.00,VWS V14.00,2013-06-18 21:27:00,
2013-06-18 16:32:00,81.4,59.3,29.87,South,186,3.0,5.0,47,0.00,,---,0.00,VWS V14.00,2013-06-18 21:32:00,
2013-06-18 16:37:00,81.1,58.4,29.87,South,173,1.0,5.0,46,0.00,,---,0.00,VWS V14.00,2013-06-18 21:37:00,
2013-06-18 16:42:00,80.7,59.8,29.87,South,172,0.0,4.0,49,0.00,,---,0.00,VWS V14.00,2013-06-18 21:42:00,
2013-06-18 16:47:00,80.5,59.0,29.87,ENE,77,7.0,8.0,48,0.00,,---,0.00,VWS V14.00,2013-06-18 21:47:00,
2013-06-18 16:52:00,80.1,59.2,29.86,NE,44,9.0,12.0,49,0.00,,---,0.00,VWS V14.00,2013-06-18 21:52:00,
2013-06-18 16:57:00,79.8,59.0,29.86,NE,40,5.0,9.0,49,0.00,,---,0.00,VWS V14.00,2013-06-18 21:57:00,
2013-06-18 17:02:00,79.4,59.2,29.86,NE,40,5.0,9.0,50,0.00,,---,0.00,VWS V14.00,2013-06-18 22:02:00,
2013-06-18 17:07:00,79.4,59.7,29.87,NE,38,5.0,6.0,51,0.00,,---,0.00,VWS V14.00,2013-06-18 22:07:00,
2013-06-18 17:13:00,79.6,58.8,29.87,NE,34,6.0,11.0,49,0.00,,---,0.00,VWS V14.00,2013-06-18 22:13:00,
2013-06-18 17:18:00,79.9,58.5,29.87,NNE,33,6.0,9.0,48,0.00,,---,0.00,VWS V14.00,2013-06-18 22:18:00,
2013-06-18 17:23:00,80.3,58.8,29.87,NNE,32,6.0,9.0,48,0.00,,---,0.00,VWS V14.00,2013-06-18 22:23:00,
2013-06-18 17:28:00,80.3,58.8,29.87,NNE,32,7.0,8.0,48,0.00,,---,0.00,VWS V14.00,2013-06-18 22:28:00,
2013-06-18 17:33:00,80.3,60.0,29.87,NNE,32,6.0,9.0,50,0.00,,---,0.00,VWS V14.00,2013-06-18 22:33:00,
2013-06-18 17:38:00,80.1,58.1,29.86,NNE,32,3.0,6.0,47,0.00,,---,0.00,VWS V14.00,2013-06-18 22:38:00,
2013-06-18 17:43:00,79.9,57.3,29.86,NNE,31,7.0,11.0,46,0.00,,---,0.00,VWS V14.00,2013-06-18 22:43:00,
2013-06-18 17:48:00,79.6,57.6,29.86,NNE,28,9.0,10.0,47,0.00,,---,0.00,VWS V14.00,2013-06-18 22:48:00,
2013-06-18 17:53:00,79.0,57.7,29.87,NNE,24,5.0,10.0,48,0.00,,---,0.00,VWS V14.00,2013-06-18 22:53:00,
2013-06-18 17:58:00,78.6,57.9,29.87,NNE,24,5.0,9.0,49,0.00,,---,0.00,VWS V14.00,2013-06-18 22:58:00,
2013-06-18 18:04:00,78.5,58.3,29.87,NNE,24,7.0,10.0,50,0.00,,---,0.00,VWS V14.00,2013-06-18 23:04:00,
2013-06-18 18:09:00,78.1,56.8,29.88,NNE,28,4.0,10.0,48,0.00,,---,0.00,VWS V14.00,2013-06-18 23:09:00,
2013-06-18 18:14:00,77.7,57.6,29.88,NNE,25,5.0,10.0,50,0.00,,---,0.00,VWS V14.00,2013-06-18 23:14:00,
2013-06-18 18:19:00,77.4,57.9,29.88,NNE,25,9.0,10.0,51,0.00,,---,0.00,VWS V14.00,2013-06-18 23:19:00,
2013-06-18 18:24:00,77.0,57.5,29.88,NNE,25,8.0,10.0,51,0.00,,---,0.00,VWS V14.00,2013-06-18 23:24:00,
2013-06-18 18:29:00,76.7,56.7,29.88,NNE,25,11.0,11.0,50,0.00,,---,0.00,VWS V14.00,2013-06-18 23:29:00,
2013-06-18 18:34:00,76.5,56.5,29.89,NNE,25,8.0,10.0,50,0.00,,---,0.00,VWS V14.00,2013-06-18 23:34:00,
2013-06-18 18:39:00,76.3,55.8,29.89,NNE,26,6.0,10.0,49,0.00,,---,0.00,VWS V14.00,2013-06-18 23:39:00,
2013-06-18 18:44:00,76.3,56.3,29.89,NNE,26,6.0,7.0,50,0.00,,---,0.00,VWS V14.00,2013-06-18 23:44:00,
2013-06-18 18:49:00,76.3,56.9,29.89,NNE,26,4.0,5.0,51,0.00,,---,0.00,VWS V14.00,2013-06-18 23:49:00,
2013-06-18 18:54:00,76.1,56.7,29.89,NNE,26,6.0,9.0,51,0.00,,---,0.00,VWS V14.00,2013-06-18 23:54:00,
2013-06-18 18:59:00,76.0,57.1,29.89,NNE,26,6.0,9.0,52,0.00,,---,0.00,VWS V14.00,2013-06-18 23:59:00,
2013-06-18 19:04:00,75.8,56.4,29.89,NNE,27,6.0,6.0,51,0.00,,---,0.00,VWS V14.00,2013-06-19 00:04:00,
2013-06-18 19:09:00,75.4,57.1,29.89,NNE,25,5.0,7.0,53,0.00,,---,0.00,VWS V14.00,2013-06-19 00:09:00,
2013-06-18 19:15:00,75.1,56.3,29.89,NNE,26,4.0,6.0,52,0.00,,---,0.00,VWS V14.00,2013-06-19 00:15:00,
2013-06-18 19:20:00,74.9,56.1,29.90,NNE,26,5.0,7.0,52,0.00,,---,0.00,VWS V14.00,2013-06-19 00:20:00,
2013-06-18 19:25:00,74.6,55.8,29.90,NNE,27,5.0,6.0,52,0.00,,---,0.00,VWS V14.00,2013-06-19 00:25:00,
2013-06-18 19:30:00,74.4,56.2,29.90,NNE,28,7.0,9.0,53,0.00,,---,0.00,VWS V14.00,2013-06-19 00:30:00,
2013-06-18 19:35:00,74.2,56.0,29.90,NNE,28,4.0,6.0,53,0.00,,---,0.00,VWS V14.00,2013-06-19 00:35:00,
2013-06-18 19:40:00,74.0,55.8,29.90,NNE,28,10.0,10.0,53,0.00,,---,0.00,VWS V14.00,2013-06-19 00:40:00,
2013-06-18 19:45:00,73.7,55.5,29.90,NNE,28,6.0,8.0,53,0.00,,---,0.00,VWS V14.00,2013-06-19 00:45:00,
2013-06-18 19:50:00,73.5,55.3,29.91,NNE,32,12.0,12.0,53,0.00,,---,0.00,VWS V14.00,2013-06-19 00:50:00,
2013-06-18 19:55:00,73.2,55.1,29.91,NNE,30,4.0,6.0,53,0.00,,---,0.00,VWS V14.00,2013-06-19 00:55:00,
2013-06-18 20:00:00,73.0,54.9,29.91,NNE,30,6.0,9.0,53,0.00,,---,0.00,VWS V14.00,2013-06-19 01:00:00,
2013-06-18 20:05:00,72.7,55.1,29.92,NNE,30,4.0,7.0,54,0.00,,---,0.00,VWS V14.00,2013-06-19 01:05:00,
2013-06-18 20:10:00,72.5,54.4,29.92,NNE,30,4.0,6.0,53,0.00,,---,0.00,VWS V14.00,2013-06-19 01:10:00,
2013-06-18 20:15:00,72.1,54.6,29.92,NNE,30,5.0,8.0,54,0.00,,---,0.00,VWS V14.00,2013-06-19 01:15:00,
2013-06-18 20:21:00,71.8,54.3,29.92,NNE,30,6.0,7.0,54,0.00,,---,0.00,VWS V14.00,2013-06-19 01:21:00,
2013-06-18 20:26:00,71.5,55.0,29.92,NNE,30,4.0,6.0,56,0.00,,---,0.00,VWS V14.00,2013-06-19 01:26:00,
2013-06-18 20:31:00,71.1,54.6,29.92,NNE,30,3.0,7.0,56,0.00,,---,0.00,VWS V14.00,2013-06-19 01:31:00,
2013-06-18 20:36:00,70.9,54.4,29.93,NNE,30,3.0,7.0,56,0.00,,---,0.00,VWS V14.00,2013-06-19 01:36:00,
2013-06-18 20:41:00,70.8,55.3,29.93,NNE,30,4.0,9.0,58,0.00,,---,0.00,VWS V14.00,2013-06-19 01:41:00,
2013-06-18 20:46:00,70.4,54.9,29.93,NNE,28,6.0,10.0,58,0.00,,---,0.00,VWS V14.00,2013-06-19 01:46:00,
2013-06-18 20:51:00,70.1,55.1,29.93,NNE,28,6.0,11.0,59,0.00,,---,0.00,VWS V14.00,2013-06-19 01:51:00,
2013-06-18 20:56:00,69.8,55.3,29.93,NNE,28,6.0,8.0,60,0.00,,---,0.00,VWS V14.00,2013-06-19 01:56:00,
2013-06-18 21:01:00,69.6,55.1,29.93,NNE,28,3.0,10.0,60,0.00,,---,0.00,VWS V14.00,2013-06-19 02:01:00,
2013-06-18 21:06:00,69.4,54.9,29.94,NNE,30,5.0,7.0,60,0.00,,---,0.00,VWS V14.00,2013-06-19 02:06:00,
2013-06-18 21:12:00,69.3,55.3,29.94,NNE,30,10.0,10.0,61,0.00,,---,0.00,VWS V14.00,2013-06-19 02:12:00,
2013-06-18 21:17:00,68.9,55.4,29.94,NNE,30,6.0,7.0,62,0.00,,---,0.00,VWS V14.00,2013-06-19 02:17:00,
2013-06-18 21:22:00,68.6,55.5,29.94,NNE,30,5.0,6.0,63,0.00,,---,0.00,VWS V14.00,2013-06-19 02:22:00,
2013-06-18 21:27:00,68.4,55.8,29.94,NNE,30,6.0,6.0,64,0.00,,---,0.00,VWS V14.00,2013-06-19 02:27:00,
2013-06-18 21:32:00,68.1,55.0,29.94,NNE,30,5.0,6.0,63,0.00,,---,0.00,VWS V14.00,2013-06-19 02:32:00,
2013-06-18 21:37:00,67.8,56.0,29.95,NNE,30,4.0,8.0,66,0.00,,---,0.00,VWS V14.00,2013-06-19 02:37:00,
2013-06-18 21:42:00,67.6,55.8,29.95,NNE,30,4.0,6.0,66,0.00,,---,0.00,VWS V14.00,2013-06-19 02:42:00,
2013-06-18 21:47:00,67.3,56.0,29.95,NNE,30,7.0,10.0,67,0.00,,---,0.00,VWS V14.00,2013-06-19 02:47:00,
2013-06-18 21:52:00,66.9,55.6,29.96,NNE,30,6.0,7.0,67,0.00,,---,0.00,VWS V14.00,2013-06-19 02:52:00,
2013-06-18 21:57:00,66.6,55.7,29.96,NNE,30,4.0,7.0,68,0.00,,---,0.00,VWS V14.00,2013-06-19 02:57:00,
2013-06-18 22:02:00,66.4,55.9,29.96,NNE,30,4.0,5.0,69,0.00,,---,0.00,VWS V14.00,2013-06-19 03:02:00,
2013-06-18 22:08:00,66.1,55.7,29.96,NNE,30,3.0,5.0,69,0.00,,---,0.00,VWS V14.00,2013-06-19 03:08:00,
2013-06-18 22:13:00,65.8,55.8,29.96,NNE,30,3.0,5.0,70,0.00,,---,0.00,VWS V14.00,2013-06-19 03:13:00,
2013-06-18 22:18:00,65.6,55.6,29.96,NNE,30,3.0,6.0,70,0.00,,---,0.00,VWS V14.00,2013-06-19 03:18:00,
2013-06-18 22:23:00,65.3,55.3,29.96,NNE,30,6.0,6.0,70,0.00,,---,0.00,VWS V14.00,2013-06-19 03:23:00,
2013-06-18 22:28:00,65.2,55.6,29.96,NNE,30,4.0,6.0,71,0.00,,---,0.00,VWS V14.00,2013-06-19 03:28:00,
2013-06-18 22:33:00,65.0,55.4,29.96,NNE,30,3.0,7.0,71,0.00,,---,0.00,VWS V14.00,2013-06-19 03:33:00,
2013-06-18 22:38:00,64.8,55.2,29.96,NNE,30,5.0,7.0,71,0.00,,---,0.00,VWS V14.00,2013-06-19 03:38:00,
2013-06-18 22:43:00,64.7,55.1,29.96,NNE,30,4.0,5.0,71,0.00,,---,0.00,VWS V14.00,2013-06-19 03:43:00,
2013-06-18 22:48:00,64.5,54.9,29.96,NNE,30,3.0,5.0,71,0.00,,---,0.00,VWS V14.00,2013-06-19 03:48:00,
2013-06-18 22:54:00,64.3,54.7,29.97,NNE,30,5.0,5.0,71,0.00,,---,0.00,VWS V14.00,2013-06-19 03:54:00,
2013-06-18 22:59:00,64.2,54.6,29.97,NNE,30,2.0,5.0,71,0.00,,---,0.00,VWS V14.00,2013-06-19 03:59:00,
2013-06-18 23:01:00,64.2,54.6,29.97,NNE,30,2.0,5.0,71,0.00,,---,0.00,VWS V14.00,2013-06-19 04:01:00,
2013-06-18 23:02:00,64.0,54.4,29.97,NNE,30,3.0,7.0,71,0.00,,---,0.00,VWS V14.00,2013-06-19 04:02:00,
2013-06-18 23:07:00,63.9,53.9,29.96,NNE,30,4.0,6.0,70,0.00,,---,0.00,VWS V14.00,2013-06-19 04:07:00,
2013-06-18 23:12:00,63.7,53.7,29.96,NNE,30,5.0,5.0,70,0.00,,---,0.00,VWS V14.00,2013-06-19 04:12:00,
2013-06-18 23:17:00,63.5,53.2,29.96,NNE,30,3.0,6.0,69,0.00,,---,0.00,VWS V14.00,2013-06-19 04:17:00,
2013-06-18 23:23:00,63.5,53.2,29.96,NNE,30,4.0,7.0,69,0.00,,---,0.00,VWS V14.00,2013-06-19 04:23:00,
2013-06-18 23:28:00,63.4,52.7,29.96,NNE,30,3.0,7.0,68,0.00,,---,0.00,VWS V14.00,2013-06-19 04:28:00,
2013-06-18 23:33:00,63.4,52.7,29.96,NNE,30,4.0,5.0,68,0.00,,---,0.00,VWS V14.00,2013-06-19 04:33:00,
2013-06-18 23:38:00,63.2,52.5,29.96,NNE,30,3.0,4.0,68,0.00,,---,0.00,VWS V14.00,2013-06-19 04:38:00,
2013-06-18 23:43:00,63.1,52.4,29.96,NNE,30,3.0,4.0,68,0.00,,---,0.00,VWS V14.00,2013-06-19 04:43:00,
2013-06-18 23:48:00,63.1,52.8,29.96,NNE,30,3.0,5.0,69,0.00,,---,0.00,VWS V14.00,2013-06-19 04:48:00,
2013-06-18 23:53:00,62.9,52.6,29.96,NNE,30,3.0,5.0,69,0.00,,---,0.00,VWS V14.00,2013-06-19 04:53:00,
2013-06-18 23:58:00,62.9,53.0,29.96,NNE,30,3.0,4.0,70,0.00,,---,0.00,VWS V14.00,2013-06-19 04:58:00,